createdAt,value
2019-03-03T00:01:24.104Z,92.00
2019-03-03T00:03:53.744Z,91.70
2019-03-03T00:06:23.409Z,91.50
2019-03-03T00:08:53.041Z,91.70
2019-03-03T00:11:22.636Z,91.80
2019-03-03T00:13:52.299Z,92.30
2019-03-03T00:16:21.922Z,92.20
2019-03-03T00:18:51.511Z,92.00
2019-03-03T00:21:21.134Z,91.80
2019-03-03T00:23:50.799Z,92.00
2019-03-03T00:26:20.484Z,91.90
2019-03-03T00:28:50.147Z,92.40
2019-03-03T00:31:39.017Z,92.20
2019-03-03T00:34:08.603Z,92.30
2019-03-03T00:36:39.905Z,92.60
2019-03-03T00:39:11.164Z,92.40
2019-03-03T00:41:48.140Z,92.50
2019-03-03T00:44:28.523Z,92.50
2019-03-03T00:47:02.639Z,92.30
2019-03-03T00:49:36.587Z,92.10
2019-03-03T00:52:10.535Z,92.40
2019-03-03T00:54:53.965Z,92.50
2019-03-03T00:57:27.781Z,92.40
2019-03-03T01:00:01.929Z,92.30
2019-03-03T01:02:39.211Z,92.20
2019-03-03T01:05:17.707Z,92.00
2019-03-03T01:07:51.773Z,92.10
2019-03-03T01:10:23.075Z,92.20
2019-03-03T01:12:54.403Z,92.50
2019-03-03T01:15:37.942Z,92.70
2019-03-03T01:18:09.736Z,92.30
2019-03-03T01:20:40.996Z,92.40
2019-03-03T01:23:20.943Z,92.40
2019-03-03T01:25:50.568Z,92.30
2019-03-03T01:28:20.160Z,92.60
2019-03-03T01:30:49.777Z,92.30
2019-03-03T01:33:19.398Z,92.10
2019-03-03T01:35:49.029Z,92.30
2019-03-03T01:38:18.621Z,92.10
2019-03-03T01:40:48.286Z,92.10
2019-03-03T01:43:17.903Z,92.00
2019-03-03T01:45:47.562Z,92.00
2019-03-03T01:48:17.253Z,91.70
2019-03-03T01:50:46.912Z,92.00
2019-03-03T01:53:16.602Z,92.20
2019-03-03T01:55:46.199Z,92.00
2019-03-03T01:58:15.819Z,92.10
2019-03-03T02:00:45.682Z,91.80
2019-03-03T02:03:15.275Z,91.70
2019-03-03T02:05:45.031Z,92.10
2019-03-03T02:08:14.966Z,92.30
2019-03-03T02:10:44.554Z,92.50
2019-03-03T02:13:14.315Z,91.70
2019-03-03T02:15:43.907Z,91.60
2019-03-03T02:18:13.519Z,91.80
2019-03-03T02:20:43.113Z,91.90
2019-03-03T02:23:13.066Z,92.40
2019-03-03T02:25:42.819Z,92.40
2019-03-03T02:28:13.534Z,93.00
2019-03-03T02:30:43.432Z,92.70
2019-03-03T02:33:13.052Z,92.50
2019-03-03T02:35:42.674Z,92.40
2019-03-03T02:38:12.335Z,92.00
2019-03-03T02:40:41.961Z,92.10
2019-03-03T02:43:11.552Z,92.20
2019-03-03T02:45:41.234Z,92.20
2019-03-03T02:48:10.856Z,92.30
2019-03-03T02:50:40.449Z,92.50
2019-03-03T02:53:10.060Z,92.90
2019-03-03T02:55:39.681Z,92.70
2019-03-03T02:58:09.270Z,92.50
2019-03-03T03:00:40.600Z,92.70
2019-03-03T03:03:11.835Z,92.50
2019-03-03T03:05:43.166Z,92.40
2019-03-03T03:08:20.349Z,92.00
2019-03-03T03:10:51.654Z,91.90
2019-03-03T03:13:28.716Z,91.80
2019-03-03T03:15:59.944Z,92.20
2019-03-03T03:18:38.120Z,92.20
2019-03-03T03:21:16.225Z,92.20
2019-03-03T03:23:57.320Z,91.60
2019-03-03T03:26:32.283Z,91.40
2019-03-03T03:29:10.704Z,91.30
2019-03-03T03:31:41.927Z,91.60
2019-03-03T03:34:13.191Z,92.10
2019-03-03T03:36:47.140Z,92.40
2019-03-03T03:39:21.510Z,92.60
2019-03-03T03:42:08.784Z,92.60
2019-03-03T03:44:54.999Z,92.00
2019-03-03T03:47:26.236Z,92.20
2019-03-03T03:50:13.596Z,92.80
2019-03-03T03:52:47.687Z,93.60
2019-03-03T03:55:35.391Z,93.70
2019-03-03T03:58:04.909Z,92.90
2019-03-03T04:00:52.170Z,92.20
2019-03-03T04:03:32.318Z,92.60
2019-03-03T04:06:12.739Z,92.60
2019-03-03T04:08:46.854Z,92.80
2019-03-03T04:11:20.645Z,92.50
2019-03-03T04:14:08.096Z,91.80
2019-03-03T04:16:45.050Z,91.70
2019-03-03T04:19:22.217Z,92.60
2019-03-03T04:21:51.574Z,92.80
2019-03-03T04:24:22.825Z,91.70
2019-03-03T04:26:56.658Z,92.30
2019-03-03T04:29:34.807Z,93.00
2019-03-03T04:32:06.114Z,92.20
2019-03-03T04:34:40.320Z,91.80
2019-03-03T04:37:11.557Z,92.00
2019-03-03T04:39:48.898Z,92.40
2019-03-03T04:42:38.307Z,92.40
2019-03-03T04:45:16.126Z,92.00
2019-03-03T04:47:59.683Z,91.60
2019-03-03T04:50:30.939Z,91.40
2019-03-03T04:53:03.155Z,91.70
2019-03-03T04:55:34.386Z,92.30
2019-03-03T04:58:03.785Z,93.40
2019-03-03T05:00:35.015Z,92.90
2019-03-03T05:03:22.620Z,92.90
2019-03-03T05:06:05.996Z,92.60
2019-03-03T05:08:37.230Z,91.90
2019-03-03T05:11:17.614Z,92.90
2019-03-03T05:13:48.849Z,92.80
2019-03-03T05:16:22.664Z,92.90
2019-03-03T05:18:56.704Z,92.70
2019-03-03T05:21:26.324Z,92.60
2019-03-03T05:23:55.917Z,92.30
2019-03-03T05:26:25.542Z,91.30
2019-03-03T05:28:55.134Z,91.20
2019-03-03T05:31:24.765Z,91.60
2019-03-03T05:33:54.442Z,92.40
2019-03-03T05:36:24.062Z,92.60
2019-03-03T05:38:53.657Z,92.60
2019-03-03T05:41:23.272Z,92.60
2019-03-03T05:43:52.866Z,92.90
2019-03-03T05:46:22.504Z,92.10
2019-03-03T05:48:52.098Z,91.90
2019-03-03T05:51:21.693Z,92.30
2019-03-03T05:53:51.310Z,92.80
2019-03-03T05:56:20.922Z,92.00
2019-03-03T05:58:50.518Z,92.40
2019-03-03T06:01:20.121Z,92.50
2019-03-03T06:03:49.740Z,92.60
2019-03-03T06:06:19.333Z,91.90
2019-03-03T06:08:48.950Z,92.30
2019-03-03T06:11:18.619Z,91.80
2019-03-03T06:13:48.219Z,91.50
2019-03-03T06:16:17.845Z,91.30
2019-03-03T06:18:47.469Z,91.70
2019-03-03T06:21:17.065Z,92.30
2019-03-03T06:23:46.683Z,92.40
2019-03-03T06:26:16.275Z,93.10
2019-03-03T06:28:45.930Z,92.30
2019-03-03T06:31:15.519Z,91.90
2019-03-03T06:33:45.111Z,91.70
2019-03-03T06:36:14.727Z,91.90
2019-03-03T06:38:44.326Z,92.30
2019-03-03T06:41:13.947Z,92.10
2019-03-03T06:43:43.564Z,92.40
2019-03-03T06:46:13.186Z,92.40
2019-03-03T06:48:42.813Z,92.50
2019-03-03T06:51:12.414Z,92.50
2019-03-03T06:53:42.038Z,92.60
2019-03-03T06:56:11.671Z,92.30
2019-03-03T06:58:41.269Z,92.20
2019-03-03T07:01:10.933Z,92.70
2019-03-03T07:03:40.555Z,92.70
2019-03-03T07:06:10.147Z,92.60
2019-03-03T07:08:39.786Z,92.80
2019-03-03T07:11:10.094Z,92.60
2019-03-03T07:13:39.853Z,92.60
2019-03-03T07:16:09.472Z,92.20
2019-03-03T07:18:39.068Z,92.20
2019-03-03T07:21:08.680Z,92.10
2019-03-03T07:23:38.299Z,91.80
2019-03-03T07:26:07.892Z,91.40
2019-03-03T07:28:37.514Z,90.80
2019-03-03T07:31:07.165Z,90.20
2019-03-03T07:33:36.786Z,90.10
2019-03-03T07:36:06.443Z,89.10
2019-03-03T07:38:36.070Z,88.50
2019-03-03T07:41:05.727Z,87.70
2019-03-03T07:43:35.313Z,87.70
2019-03-03T07:46:04.998Z,87.80
2019-03-03T07:48:34.635Z,86.40
2019-03-03T07:51:04.364Z,84.80
2019-03-03T07:53:33.950Z,84.70
2019-03-03T07:56:03.567Z,84.60
2019-03-03T07:58:33.157Z,83.80
2019-03-03T08:01:02.800Z,83.50
2019-03-03T08:03:32.393Z,82.30
2019-03-03T08:06:02.187Z,81.00
2019-03-03T08:08:31.779Z,80.00
2019-03-03T08:11:01.388Z,78.70
2019-03-03T08:13:30.981Z,78.40
2019-03-03T08:16:00.601Z,78.20
2019-03-03T08:18:30.187Z,75.60
2019-03-03T08:20:59.786Z,76.00
2019-03-03T08:23:29.412Z,74.40
2019-03-03T08:25:59.018Z,72.50
2019-03-03T08:28:28.619Z,71.60
2019-03-03T08:30:58.249Z,69.70
2019-03-03T08:33:27.876Z,68.50
2019-03-03T08:35:57.471Z,66.30
2019-03-03T08:38:27.105Z,65.00
2019-03-03T08:40:56.702Z,67.50
2019-03-03T08:43:40.303Z,70.20
2019-03-03T08:46:11.549Z,67.90
2019-03-03T08:48:45.295Z,70.00
2019-03-03T08:51:17.853Z,71.20
2019-03-03T08:53:51.971Z,71.70
2019-03-03T08:56:24.309Z,71.10
2019-03-03T08:58:55.579Z,71.10
2019-03-03T09:01:43.099Z,71.50
2019-03-03T09:04:20.203Z,70.80
2019-03-03T09:07:04.483Z,70.10
2019-03-03T09:09:42.549Z,69.60
2019-03-03T09:12:25.640Z,68.90
2019-03-03T09:15:08.973Z,67.90
2019-03-03T09:17:45.850Z,67.70
2019-03-03T09:20:33.055Z,67.10
2019-03-03T09:23:07.000Z,67.10
2019-03-03T09:25:50.338Z,65.50
2019-03-03T09:28:37.581Z,64.70
2019-03-03T09:31:20.889Z,63.40
2019-03-03T09:34:00.947Z,63.60
2019-03-03T09:36:48.599Z,63.90
2019-03-03T09:39:20.863Z,63.30
2019-03-03T09:42:03.982Z,59.10
2019-03-03T09:44:42.346Z,56.60
2019-03-03T09:47:14.233Z,55.50
2019-03-03T09:49:51.248Z,55.20
2019-03-03T09:52:28.321Z,53.90
2019-03-03T09:55:11.492Z,50.50
2019-03-03T09:57:45.317Z,48.40
2019-03-03T10:00:22.665Z,48.20
2019-03-03T10:02:53.927Z,48.60
2019-03-03T10:05:37.415Z,48.60
2019-03-03T10:08:25.346Z,47.50
2019-03-03T10:10:59.442Z,46.90
2019-03-03T10:13:39.887Z,46.20
2019-03-03T10:16:14.380Z,46.30
2019-03-03T10:18:48.993Z,45.70
2019-03-03T10:21:36.586Z,44.30
2019-03-03T10:24:08.194Z,43.00
2019-03-03T10:26:42.380Z,43.40
2019-03-03T10:29:19.359Z,43.20
2019-03-03T10:31:59.822Z,42.50
2019-03-03T10:34:39.963Z,42.20
2019-03-03T10:37:09.426Z,42.00
2019-03-03T10:39:43.515Z,42.10
2019-03-03T10:42:17.597Z,42.90
2019-03-03T10:44:48.830Z,43.50
2019-03-03T10:47:36.311Z,43.40
2019-03-03T10:50:13.526Z,42.90
2019-03-03T10:53:01.003Z,43.20
2019-03-03T10:55:34.962Z,41.90
2019-03-03T10:58:22.538Z,42.80
2019-03-03T11:00:59.594Z,42.50
2019-03-03T11:03:33.804Z,42.80
2019-03-03T11:06:05.237Z,43.30
2019-03-03T11:08:36.470Z,43.00
2019-03-03T11:11:13.748Z,42.90
2019-03-03T11:13:51.561Z,42.00
2019-03-03T11:16:41.389Z,41.10
2019-03-03T11:19:12.662Z,41.30
2019-03-03T11:21:55.977Z,40.70
2019-03-03T11:24:34.016Z,38.80
2019-03-03T11:27:23.415Z,39.10
2019-03-03T11:30:01.507Z,41.10
2019-03-03T11:32:38.375Z,41.30
2019-03-03T11:35:21.877Z,41.30
2019-03-03T11:37:55.968Z,40.80
2019-03-03T11:40:31.334Z,40.70
2019-03-03T11:43:00.726Z,41.20
2019-03-03T11:45:34.766Z,40.90
2019-03-03T11:48:10.305Z,41.10
2019-03-03T11:50:47.728Z,40.40
2019-03-03T11:53:18.960Z,39.90
2019-03-03T11:55:52.991Z,39.20
2019-03-03T11:58:25.424Z,39.00
2019-03-03T12:01:08.881Z,38.60
2019-03-03T12:03:46.137Z,38.10
2019-03-03T12:06:29.539Z,38.20
2019-03-03T12:09:17.036Z,38.40
2019-03-03T12:11:52.092Z,37.60
2019-03-03T12:14:39.972Z,37.20
2019-03-03T12:17:23.190Z,37.30
2019-03-03T12:19:54.494Z,37.70
2019-03-03T12:22:31.465Z,37.70
2019-03-03T12:25:05.344Z,36.10
2019-03-03T12:27:39.054Z,36.20
2019-03-03T12:30:21.487Z,35.70
2019-03-03T12:33:00.129Z,35.80
2019-03-03T12:35:31.462Z,36.10
2019-03-03T12:38:02.695Z,35.60
2019-03-03T12:40:46.044Z,36.50
2019-03-03T12:43:21.235Z,36.40
2019-03-03T12:45:58.572Z,36.90
2019-03-03T12:48:41.881Z,36.80
2019-03-03T12:51:16.801Z,36.00
2019-03-03T12:53:48.035Z,35.50
2019-03-03T12:56:17.475Z,35.30
2019-03-03T12:58:55.661Z,35.20
2019-03-03T13:01:34.048Z,35.30
2019-03-03T13:04:17.228Z,34.90
2019-03-03T13:07:01.424Z,34.70
2019-03-03T13:09:48.975Z,34.00
2019-03-03T13:12:24.386Z,34.00
2019-03-03T13:14:58.096Z,34.50
2019-03-03T13:17:29.365Z,34.80
2019-03-03T13:20:08.040Z,34.70
2019-03-03T13:22:48.147Z,34.20
2019-03-03T13:25:17.576Z,34.20
2019-03-03T13:27:48.829Z,34.20
2019-03-03T13:30:36.805Z,34.70
2019-03-03T13:33:11.960Z,34.90
2019-03-03T13:35:51.847Z,35.00
2019-03-03T13:38:23.693Z,34.60
2019-03-03T13:41:03.837Z,34.40
2019-03-03T13:43:34.380Z,35.10
2019-03-03T13:46:04.315Z,35.00
2019-03-03T13:48:34.076Z,35.00
2019-03-03T13:51:03.737Z,35.10
2019-03-03T13:53:33.459Z,34.50
2019-03-03T13:56:03.195Z,33.70
2019-03-03T13:58:32.789Z,34.50
2019-03-03T14:01:02.549Z,34.00
2019-03-03T14:03:32.250Z,34.30
2019-03-03T14:06:01.880Z,34.30
2019-03-03T14:08:31.515Z,34.60
2019-03-03T14:11:01.107Z,34.50
2019-03-03T14:13:30.771Z,34.70
2019-03-03T14:16:00.463Z,34.50
2019-03-03T14:18:30.089Z,34.60
2019-03-03T14:20:59.834Z,34.50
2019-03-03T14:23:29.565Z,34.50
2019-03-03T14:25:59.202Z,34.80
2019-03-03T14:28:28.959Z,34.90
2019-03-03T14:30:58.554Z,34.80
2019-03-03T14:33:28.178Z,34.70
2019-03-03T14:35:57.795Z,34.20
2019-03-03T14:38:27.390Z,34.60
2019-03-03T14:40:57.077Z,35.10
2019-03-03T14:43:26.679Z,34.80
2019-03-03T14:45:58.000Z,34.50
2019-03-03T14:48:27.817Z,34.40
2019-03-03T14:50:57.506Z,34.40
2019-03-03T14:53:27.166Z,34.90
2019-03-03T14:55:56.855Z,34.90
2019-03-03T14:58:26.519Z,35.00
2019-03-03T15:00:56.203Z,35.50
2019-03-03T15:03:25.819Z,35.00
2019-03-03T15:05:55.511Z,34.90
2019-03-03T15:08:25.237Z,34.90
2019-03-03T15:10:54.970Z,34.70
2019-03-03T15:13:24.560Z,35.30
2019-03-03T15:15:54.258Z,35.50
2019-03-03T15:18:23.993Z,35.50
2019-03-03T15:20:53.615Z,34.90
2019-03-03T15:23:23.243Z,35.00
2019-03-03T15:25:52.909Z,35.30
2019-03-03T15:28:22.531Z,35.60
2019-03-03T15:30:52.215Z,35.60
2019-03-03T15:33:21.835Z,35.40
2019-03-03T15:35:51.995Z,35.40
2019-03-03T15:38:21.618Z,35.60
2019-03-03T15:40:51.349Z,35.50
2019-03-03T15:43:20.971Z,35.60
2019-03-03T15:45:50.572Z,35.60
2019-03-03T15:48:20.267Z,36.00
2019-03-03T15:50:50.139Z,35.80
2019-03-03T15:53:19.802Z,36.40
2019-03-03T15:55:49.479Z,37.00
2019-03-03T15:58:19.102Z,36.50
2019-03-03T16:00:49.374Z,36.00
2019-03-03T16:03:18.996Z,35.80
2019-03-03T16:05:48.763Z,36.30
2019-03-03T16:08:18.376Z,36.30
2019-03-03T16:10:47.973Z,36.40
2019-03-03T16:13:17.604Z,36.30
2019-03-03T16:15:47.313Z,36.50
2019-03-03T16:18:17.043Z,36.80
2019-03-03T16:20:46.704Z,36.90
2019-03-03T16:23:16.391Z,37.10
2019-03-03T16:25:46.053Z,37.60
2019-03-03T16:28:15.673Z,37.20
2019-03-03T16:30:45.270Z,37.30
2019-03-03T16:33:20.599Z,37.50
2019-03-03T16:35:46.352Z,37.80
2019-03-03T16:38:15.976Z,37.90
2019-03-03T16:40:46.203Z,37.90
2019-03-03T16:43:16.040Z,38.30
2019-03-03T16:45:45.640Z,39.10
2019-03-03T16:48:15.268Z,38.50
2019-03-03T16:50:44.894Z,38.60
2019-03-03T16:53:14.495Z,38.40
2019-03-03T16:55:44.193Z,38.70
2019-03-03T16:58:13.804Z,38.80
2019-03-03T17:00:43.665Z,38.40
2019-03-03T17:03:13.334Z,38.80
2019-03-03T17:05:42.957Z,39.00
2019-03-03T17:08:12.647Z,39.00
2019-03-03T17:10:42.316Z,39.30
2019-03-03T17:13:11.935Z,39.40
2019-03-03T17:15:41.534Z,39.60
2019-03-03T17:18:11.162Z,42.20
2019-03-03T17:20:40.755Z,42.30
2019-03-03T17:23:10.385Z,43.70
2019-03-03T17:25:39.985Z,44.80
2019-03-03T17:28:09.610Z,45.60
2019-03-03T17:30:39.225Z,46.80
2019-03-03T17:33:08.988Z,47.70
2019-03-03T17:35:38.593Z,48.40
2019-03-03T17:38:08.219Z,49.30
2019-03-03T17:40:37.845Z,49.90
2019-03-03T17:43:07.474Z,50.70
2019-03-03T17:45:37.069Z,51.10
2019-03-03T17:48:06.762Z,51.40
2019-03-03T17:50:36.460Z,51.60
2019-03-03T17:53:06.133Z,51.80
2019-03-03T17:55:35.752Z,52.10
2019-03-03T17:58:05.603Z,52.10
2019-03-03T18:00:46.167Z,52.60
2019-03-03T18:03:15.863Z,52.80
2019-03-03T18:05:45.659Z,53.10
2019-03-03T18:08:15.247Z,52.90
2019-03-03T18:10:45.011Z,52.50
2019-03-03T18:13:14.604Z,52.70
2019-03-03T18:15:44.292Z,53.40
2019-03-03T18:18:13.922Z,54.30
2019-03-03T18:20:43.519Z,53.90
2019-03-03T18:23:13.140Z,53.30
2019-03-03T18:25:42.768Z,54.30
2019-03-03T18:28:12.397Z,54.90
2019-03-03T18:30:42.063Z,55.60
2019-03-03T18:33:11.656Z,56.30
2019-03-03T18:35:41.337Z,56.50
2019-03-03T18:38:11.022Z,56.80
2019-03-03T18:40:40.631Z,57.40
2019-03-03T18:43:10.250Z,59.20
2019-03-03T18:45:39.910Z,58.40
2019-03-03T18:48:09.595Z,57.30
2019-03-03T18:50:39.254Z,57.00
2019-03-03T18:53:08.939Z,56.50
2019-03-03T18:55:38.595Z,56.00
2019-03-03T18:58:08.286Z,57.00
2019-03-03T19:00:38.089Z,58.10
2019-03-03T19:03:07.809Z,57.20
2019-03-03T19:05:37.479Z,59.60
2019-03-03T19:08:07.195Z,59.80
2019-03-03T19:10:40.439Z,63.70
2019-03-03T19:13:10.025Z,64.80
2019-03-03T19:15:39.712Z,64.20
2019-03-03T19:18:09.306Z,66.10
2019-03-03T19:20:38.998Z,67.50
2019-03-03T19:23:08.722Z,65.90
2019-03-03T19:25:38.345Z,63.40
2019-03-03T19:28:08.029Z,61.90
2019-03-03T19:30:37.612Z,60.20
2019-03-03T19:33:20.959Z,59.90
2019-03-03T19:35:50.855Z,59.10
2019-03-03T19:38:20.536Z,60.60
2019-03-03T19:40:50.387Z,59.60
2019-03-03T19:43:20.119Z,59.40
2019-03-03T19:46:02.706Z,59.20
2019-03-03T19:48:32.297Z,59.10
2019-03-03T19:51:03.332Z,59.10
2019-03-03T19:53:33.195Z,59.20
2019-03-03T19:56:02.998Z,59.20
2019-03-03T19:58:32.706Z,59.00
2019-03-03T20:01:02.504Z,59.30
2019-03-03T20:03:32.194Z,58.50
2019-03-03T20:06:01.878Z,59.10
2019-03-03T20:08:31.462Z,58.90
2019-03-03T20:11:01.152Z,59.00
2019-03-03T20:13:31.179Z,58.90
2019-03-03T20:16:00.871Z,59.90
2019-03-03T20:18:30.673Z,61.10
2019-03-03T20:21:00.360Z,60.60
2019-03-03T20:23:29.963Z,60.40
2019-03-03T20:25:59.566Z,60.10
2019-03-03T20:28:29.255Z,59.60
2019-03-03T20:30:59.115Z,60.20
2019-03-03T20:33:28.731Z,63.00
2019-03-03T20:35:58.349Z,65.30
2019-03-03T20:38:27.938Z,69.00
2019-03-03T20:40:57.566Z,69.20
2019-03-03T20:43:27.162Z,70.30
2019-03-03T20:45:56.750Z,68.80
2019-03-03T20:48:26.367Z,67.50
2019-03-03T20:50:55.955Z,69.50
2019-03-03T20:53:25.578Z,67.50
2019-03-03T20:55:55.201Z,68.40
2019-03-03T20:58:24.817Z,67.60
2019-03-03T21:00:54.432Z,67.00
2019-03-03T21:03:24.050Z,64.80
2019-03-03T21:05:53.669Z,64.00
2019-03-03T21:08:23.261Z,64.30
2019-03-03T21:10:52.849Z,64.50
2019-03-03T21:13:22.468Z,64.00
2019-03-03T21:15:52.154Z,64.20
2019-03-03T21:18:21.742Z,63.70
2019-03-03T21:20:51.356Z,64.30
2019-03-03T21:23:20.942Z,64.00
2019-03-03T21:25:50.626Z,65.90
2019-03-03T21:28:20.219Z,67.00
2019-03-03T21:30:49.849Z,68.30
2019-03-03T21:33:19.444Z,68.30
2019-03-03T21:35:49.072Z,65.90
2019-03-03T21:38:18.667Z,64.30
2019-03-03T21:40:48.322Z,63.70
2019-03-03T21:43:17.923Z,62.80
2019-03-03T21:45:47.537Z,62.20
2019-03-03T21:48:17.152Z,62.40
2019-03-03T21:50:46.742Z,63.00
2019-03-03T21:53:16.383Z,62.80
2019-03-03T21:55:45.934Z,64.60
2019-03-03T21:58:15.623Z,66.90
2019-03-03T22:00:45.273Z,71.30
2019-03-03T22:03:14.890Z,73.90
2019-03-03T22:05:44.478Z,75.70
2019-03-03T22:08:14.095Z,76.80
2019-03-03T22:10:43.682Z,79.10
2019-03-03T22:13:13.850Z,78.50
2019-03-03T22:15:44.207Z,78.50
2019-03-03T22:18:13.829Z,79.80
2019-03-03T22:20:43.426Z,80.70
2019-03-03T22:23:13.048Z,80.30
2019-03-03T22:25:42.667Z,79.80
2019-03-03T22:28:12.284Z,78.30
2019-03-03T22:30:41.948Z,77.20
2019-03-03T22:33:11.567Z,75.10
2019-03-03T22:35:41.153Z,73.30
2019-03-03T22:38:10.766Z,71.50
2019-03-03T22:40:40.378Z,71.00
2019-03-03T22:43:09.961Z,71.10
2019-03-03T22:45:39.664Z,71.70
2019-03-03T22:48:09.270Z,70.10
2019-03-03T22:50:38.853Z,73.00
2019-03-03T22:53:08.471Z,74.90
2019-03-03T22:55:40.394Z,76.60
2019-03-03T22:58:09.725Z,78.60
2019-03-03T23:00:59.606Z,78.70
2019-03-03T23:03:39.828Z,79.10
2019-03-03T23:06:22.877Z,80.10
2019-03-03T23:09:14.977Z,79.90
2019-03-03T23:11:54.933Z,79.50
2019-03-03T23:15:03.753Z,80.10
2019-03-03T23:17:43.733Z,78.90
2019-03-03T23:20:39.329Z,77.30
2019-03-03T23:23:28.748Z,76.50
2019-03-03T23:25:58.354Z,75.20
2019-03-03T23:28:28.002Z,75.30
2019-03-03T23:30:57.613Z,74.10
2019-03-03T23:33:27.346Z,73.80
2019-03-03T23:35:56.958Z,73.90
2019-03-03T23:38:26.550Z,71.50
2019-03-03T23:40:56.179Z,71.70
2019-03-03T23:43:25.909Z,72.10
2019-03-03T23:45:55.495Z,76.00
2019-03-03T23:48:25.179Z,78.70
2019-03-03T23:50:54.769Z,78.30
2019-03-03T23:53:24.382Z,78.50
2019-03-03T23:55:54.034Z,81.00
2019-03-03T23:58:23.655Z,82.70
